sensor_id;sensor_type;location;lat;lon;timestamp;pressure;altitude;pressure_sealevel;temperature;humidity
42691;BME280;28306;55.744;37.578;2023-01-29T00:01:01;99995.28;;;24.01;20.00
42691;BME280;28306;55.744;37.578;2023-01-29T00:03:29;99990.69;;;24.01;19.80
42691;BME280;28306;55.744;37.578;2023-01-29T00:05:55;99996.94;;;24.02;20.12
42691;BME280;28306;55.744;37.578;2023-01-29T00:08:20;99998.00;;;24.01;20.03
42691;BME280;28306;55.744;37.578;2023-01-29T00:10:46;99998.59;;;24.03;19.91
42691;BME280;28306;55.744;37.578;2023-01-29T00:13:12;99998.84;;;24.01;19.81
42691;BME280;28306;55.744;37.578;2023-01-29T00:15:37;99995.03;;;24.02;19.94
42691;BME280;28306;55.744;37.578;2023-01-29T00:18:02;99995.88;;;24.03;19.86
42691;BME280;28306;55.744;37.578;2023-01-29T00:20:29;99986.06;;;24.02;20.04
42691;BME280;28306;55.744;37.578;2023-01-29T00:22:54;99990.69;;;24.01;20.23
42691;BME280;28306;55.744;37.578;2023-01-29T00:25:20;99978.44;;;23.99;19.83
42691;BME280;28306;55.744;37.578;2023-01-29T00:27:45;99975.72;;;23.99;19.90
42691;BME280;28306;55.744;37.578;2023-01-29T00:30:11;99979.25;;;23.99;19.94
42691;BME280;28306;55.744;37.578;2023-01-29T00:32:38;99973.81;;;23.99;19.84
42691;BME280;28306;55.744;37.578;2023-01-29T00:35:04;99973.81;;;23.99;20.13
42691;BME280;28306;55.744;37.578;2023-01-29T00:37:29;99977.38;;;24.00;19.82
42691;BME280;28306;55.744;37.578;2023-01-29T00:39:55;99976.53;;;23.99;20.14
42691;BME280;28306;55.744;37.578;2023-01-29T00:42:21;99977.38;;;24.00;19.86
42691;BME280;28306;55.744;37.578;2023-01-29T00:45:05;99981.16;;;23.99;20.17
42691;BME280;28306;55.744;37.578;2023-01-29T00:47:31;99974.66;;;24.00;19.99
42691;BME280;28306;55.744;37.578;2023-01-29T00:50:00;99970.03;;;24.00;19.99
42691;BME280;28306;55.744;37.578;2023-01-29T00:52:26;99961.88;;;24.00;19.95
42691;BME280;28306;55.744;37.578;2023-01-29T00:54:52;99967.31;;;24.00;19.94
42691;BME280;28306;55.744;37.578;2023-01-29T00:57:18;99965.66;;;23.99;20.11
42691;BME280;28306;55.744;37.578;2023-01-29T00:59:43;99958.59;;;23.98;19.94
42691;BME280;28306;55.744;37.578;2023-01-29T01:02:09;99965.66;;;23.99;19.97
42691;BME280;28306;55.744;37.578;2023-01-29T01:04:53;99968.38;;;23.99;20.18
42691;BME280;28306;55.744;37.578;2023-01-29T01:07:19;99970.28;;;23.99;19.96
42691;BME280;28306;55.744;37.578;2023-01-29T01:09:44;99958.00;;;23.96;19.90
42691;BME280;28306;55.744;37.578;2023-01-29T01:12:29;99966.16;;;23.96;19.94
42691;BME280;28306;55.744;37.578;2023-01-29T01:14:54;99962.63;;;23.96;20.14
42691;BME280;28306;55.744;37.578;2023-01-29T01:17:20;99966.16;;;23.96;19.96
42691;BME280;28306;55.744;37.578;2023-01-29T01:19:46;99965.34;;;23.96;20.16
42691;BME280;28306;55.744;37.578;2023-01-29T01:22:11;99965.34;;;23.96;20.03
42691;BME280;28306;55.744;37.578;2023-01-29T01:24:37;99964.53;;;23.95;20.09
42691;BME280;28306;55.744;37.578;2023-01-29T01:27:03;99969.13;;;23.95;20.02
42691;BME280;28306;55.744;37.578;2023-01-29T01:29:28;99966.41;;;23.95;20.09
42691;BME280;28306;55.744;37.578;2023-01-29T01:31:54;99971.84;;;23.95;20.11
42691;BME280;28306;55.744;37.578;2023-01-29T01:34:20;99962.88;;;23.94;20.15
42691;BME280;28306;55.744;37.578;2023-01-29T01:36:46;99946.56;;;23.94;20.08
42691;BME280;28306;55.744;37.578;2023-01-29T01:39:12;99953.91;;;23.93;19.83
42691;BME280;28306;55.744;37.578;2023-01-29T01:41:37;99957.44;;;23.94;19.88
42691;BME280;28306;55.744;37.578;2023-01-29T01:44:03;99953.91;;;23.93;20.05
42691;BME280;28306;55.744;37.578;2023-01-29T01:46:38;99950.34;;;23.93;19.87
42691;BME280;28306;55.744;37.578;2023-01-29T01:49:13;99950.34;;;23.93;20.05
42691;BME280;28306;55.744;37.578;2023-01-29T01:51:42;99942.44;;;23.91;20.23
42691;BME280;28306;55.744;37.578;2023-01-29T01:54:09;99947.88;;;23.91;20.02
42691;BME280;28306;55.744;37.578;2023-01-29T01:56:38;99943.28;;;23.92;20.08
42691;BME280;28306;55.744;37.578;2023-01-29T01:59:15;99930.75;;;23.91;20.04
42691;BME280;28306;55.744;37.578;2023-01-29T02:01:42;99933.47;;;23.91;20.04
42691;BME280;28306;55.744;37.578;2023-01-29T02:04:10;99944.09;;;23.92;19.83
42691;BME280;28306;55.744;37.578;2023-01-29T02:06:55;99930.50;;;23.92;20.08
42691;BME280;28306;55.744;37.578;2023-01-29T02:09:49;99919.63;;;23.92;19.99
42691;BME280;28306;55.744;37.578;2023-01-29T02:12:16;99919.88;;;23.91;19.91
42691;BME280;28306;55.744;37.578;2023-01-29T02:14:43;99913.66;;;23.90;20.03
42691;BME280;28306;55.744;37.578;2023-01-29T02:17:12;99917.44;;;23.89;19.92
42691;BME280;28306;55.744;37.578;2023-01-29T02:24:58;99900.56;;;23.87;19.96
42691;BME280;28306;55.744;37.578;2023-01-29T02:27:45;99904.09;;;23.88;20.03
42691;BME280;28306;55.744;37.578;2023-01-29T02:33:04;99895.38;;;23.86;19.85
42691;BME280;28306;55.744;37.578;2023-01-29T02:40:54;99895.63;;;23.84;20.04
42691;BME280;28306;55.744;37.578;2023-01-29T02:46:07;99883.09;;;23.83;19.99
42691;BME280;28306;55.744;37.578;2023-01-29T02:48:38;99868.47;;;23.84;20.07
42691;BME280;28306;55.744;37.578;2023-01-29T02:51:05;99874.94;;;23.83;19.83
42691;BME280;28306;55.744;37.578;2023-01-29T02:56:06;99863.25;;;23.83;20.12
42691;BME280;28306;55.744;37.578;2023-01-29T03:01:10;99861.34;;;23.83;20.21
42691;BME280;28306;55.744;37.578;2023-01-29T03:03:39;99856.75;;;23.84;19.88
42691;BME280;28306;55.744;37.578;2023-01-29T03:06:06;99853.19;;;23.83;19.86
42691;BME280;28306;55.744;37.578;2023-01-29T03:08:43;99852.38;;;23.83;19.92
42691;BME280;28306;55.744;37.578;2023-01-29T03:11:15;99856.97;;;23.82;20.06
42691;BME280;28306;55.744;37.578;2023-01-29T03:13:43;99849.66;;;23.83;20.20
42691;BME280;28306;55.744;37.578;2023-01-29T03:18:40;99836.09;;;23.83;20.17
42691;BME280;28306;55.744;37.578;2023-01-29T03:21:16;99837.97;;;23.82;19.80
42691;BME280;28306;55.744;37.578;2023-01-29T03:24:02;99833.63;;;23.81;20.05
42691;BME280;28306;55.744;37.578;2023-01-29T03:26:47;99829.00;;;23.82;20.17
42691;BME280;28306;55.744;37.578;2023-01-29T03:29:35;99817.31;;;23.81;19.81
42691;BME280;28306;55.744;37.578;2023-01-29T03:32:26;99809.72;;;23.83;19.83
42691;BME280;28306;55.744;37.578;2023-01-29T03:34:54;99810.56;;;23.84;19.85
42691;BME280;28306;55.744;37.578;2023-01-29T03:37:32;99771.75;;;23.66;19.96
42691;BME280;28306;55.744;37.578;2023-01-29T03:40:03;99801.56;;;23.83;19.87
42691;BME280;28306;55.744;37.578;2023-01-29T03:42:51;99794.25;;;23.84;19.92
42691;BME280;28306;55.744;37.578;2023-01-29T03:45:21;99782.56;;;23.83;19.88
42691;BME280;28306;55.744;37.578;2023-01-29T03:50:56;99778.81;;;23.84;19.94
42691;BME280;28306;55.744;37.578;2023-01-29T03:56:04;99776.09;;;23.84;19.80
42691;BME280;28306;55.744;37.578;2023-01-29T03:58:41;99769.56;;;23.85;19.80
42691;BME280;28306;55.744;37.578;2023-01-29T04:01:14;99765.78;;;23.86;20.03
42691;BME280;28306;55.744;37.578;2023-01-29T04:03:47;99766.59;;;23.87;20.07
42691;BME280;28306;55.744;37.578;2023-01-29T04:06:16;99756.56;;;23.87;19.97
42691;BME280;28306;55.744;37.578;2023-01-29T04:08:57;99763.59;;;23.88;20.03
42691;BME280;28306;55.744;37.578;2023-01-29T04:11:24;99761.16;;;23.87;19.97
42691;BME280;28306;55.744;37.578;2023-01-29T04:13:51;99752.19;;;23.86;20.08
42691;BME280;28306;55.744;37.578;2023-01-29T04:16:28;99749.47;;;23.86;19.73
42691;BME280;28306;55.744;37.578;2023-01-29T04:19:14;99743.78;;;23.88;19.95
42691;BME280;28306;55.744;37.578;2023-01-29T04:21:41;99744.03;;;23.86;19.91
42691;BME280;28306;55.744;37.578;2023-01-29T04:24:07;99744.84;;;23.87;19.73
42691;BME280;28306;55.744;37.578;2023-01-29T04:26:49;99750.28;;;23.87;19.88
42691;BME280;28306;55.744;37.578;2023-01-29T04:32:40;99752.75;;;23.88;19.76
42691;BME280;28306;55.744;37.578;2023-01-29T04:37:28;99746.25;;;23.89;19.84
42691;BME280;28306;55.744;37.578;2023-01-29T04:42:41;99735.38;;;23.89;19.70
42691;BME280;28306;55.744;37.578;2023-01-29T04:47:46;99733.22;;;23.91;19.74
42691;BME280;28306;55.744;37.578;2023-01-29T04:50:21;99736.75;;;23.92;19.85
42691;BME280;28306;55.744;37.578;2023-01-29T04:52:49;99735.94;;;23.91;19.77
42691;BME280;28306;55.744;37.578;2023-01-29T04:55:24;99733.22;;;23.91;19.76
42691;BME280;28306;55.744;37.578;2023-01-29T05:00:25;99736.75;;;23.92;19.69
42691;BME280;28306;55.744;37.578;2023-01-29T05:02:52;99722.34;;;23.91;19.63
42691;BME280;28306;55.744;37.578;2023-01-29T05:05:18;99717.50;;;23.93;19.87
42691;BME280;28306;55.744;37.578;2023-01-29T05:07:44;99722.91;;;23.93;20.01
42691;BME280;28306;55.744;37.578;2023-01-29T05:10:10;99718.56;;;23.92;19.90
42691;BME280;28306;55.744;37.578;2023-01-29T05:12:37;99717.50;;;23.93;19.87
42691;BME280;28306;55.744;37.578;2023-01-29T05:15:07;99718.56;;;23.92;19.74
42691;BME280;28306;55.744;37.578;2023-01-29T05:17:33;99724.00;;;23.92;19.77
42691;BME280;28306;55.744;37.578;2023-01-29T05:19:59;99724.00;;;23.92;19.91
42691;BME280;28306;55.744;37.578;2023-01-29T05:22:24;99725.06;;;23.91;19.75
42691;BME280;28306;55.744;37.578;2023-01-29T05:24:51;99726.16;;;23.90;19.59
42691;BME280;28306;55.744;37.578;2023-01-29T05:27:21;99725.06;;;23.91;19.90
42691;BME280;28306;55.744;37.578;2023-01-29T05:30:06;99732.13;;;23.92;19.63
42691;BME280;28306;55.744;37.578;2023-01-29T05:32:31;99734.84;;;23.92;19.75
42691;BME280;28306;55.744;37.578;2023-01-29T05:34:57;99725.63;;;23.93;19.67
42691;BME280;28306;55.744;37.578;2023-01-29T05:37:22;99726.44;;;23.94;19.74
42691;BME280;28306;55.744;37.578;2023-01-29T05:39:48;99722.91;;;23.93;19.71
42691;BME280;28306;55.744;37.578;2023-01-29T05:42:13;99727.25;;;23.95;19.75
42691;BME280;28306;55.744;37.578;2023-01-29T05:44:39;99719.94;;;23.95;19.68
42691;BME280;28306;55.744;37.578;2023-01-29T05:47:04;99725.38;;;23.95;19.63
42691;BME280;28306;55.744;37.578;2023-01-29T05:49:30;99730.81;;;23.95;19.73
42691;BME280;28306;55.744;37.578;2023-01-29T05:51:56;99729.97;;;23.95;19.66
42691;BME280;28306;55.744;37.578;2023-01-29T05:54:21;99729.16;;;23.94;19.73
42691;BME280;28306;55.744;37.578;2023-01-29T05:56:46;99723.19;;;23.92;19.58
42691;BME280;28306;55.744;37.578;2023-01-29T05:59:12;99735.66;;;23.93;19.63
42691;BME280;28306;55.744;37.578;2023-01-29T06:01:41;99732.13;;;23.92;19.85
42691;BME280;28306;55.744;37.578;2023-01-29T06:04:07;99735.94;;;23.91;19.62
42691;BME280;28306;55.744;37.578;2023-01-29T06:06:32;99734.03;;;23.92;19.79
42691;BME280;28306;55.744;37.578;2023-01-29T06:08:58;99726.16;;;23.90;19.82
42691;BME280;28306;55.744;37.578;2023-01-29T06:11:23;99732.66;;;23.89;19.59
42691;BME280;28306;55.744;37.578;2023-01-29T06:13:49;99734.81;;;23.87;19.64
42691;BME280;28306;55.744;37.578;2023-01-29T06:16:14;99730.19;;;23.88;19.66
42691;BME280;28306;55.744;37.578;2023-01-29T06:18:40;99724.75;;;23.88;19.93
42691;BME280;28306;55.744;37.578;2023-01-29T06:21:06;99717.41;;;23.88;19.66
42691;BME280;28306;55.744;37.578;2023-01-29T06:23:32;99711.16;;;23.88;19.69
42691;BME280;28306;55.744;37.578;2023-01-29T06:26:01;99716.34;;;23.89;19.69
42691;BME280;28306;55.744;37.578;2023-01-29T06:28:27;99704.94;;;23.87;19.53
42691;BME280;28306;55.744;37.578;2023-01-29T06:30:54;99706.53;;;23.88;19.62
42691;BME280;28306;55.744;37.578;2023-01-29T06:33:20;99716.34;;;23.89;19.68
42691;BME280;28306;55.744;37.578;2023-01-29T06:35:46;99711.72;;;23.90;19.71
42691;BME280;28306;55.744;37.578;2023-01-29T06:38:11;99708.19;;;23.89;19.62
42691;BME280;28306;55.744;37.578;2023-01-29T06:40:37;99702.22;;;23.87;19.58
42691;BME280;28306;55.744;37.578;2023-01-29T06:43:03;99717.41;;;23.88;19.70
42691;BME280;28306;55.744;37.578;2023-01-29T08:52:16;99623.31;;;24.09;19.33
42691;BME280;28306;55.744;37.578;2023-01-29T08:54:42;99609.97;;;24.08;19.16
42691;BME280;28306;55.744;37.578;2023-01-29T08:57:07;99609.41;;;24.06;19.21
42691;BME280;28306;55.744;37.578;2023-01-29T08:59:33;99616.75;;;24.05;19.27
42691;BME280;28306;55.744;37.578;2023-01-29T09:01:58;99601.25;;;24.06;19.39
42691;BME280;28306;55.744;37.578;2023-01-29T09:04:24;99601.25;;;24.06;19.19
42691;BME280;28306;55.744;37.578;2023-01-29T09:06:49;99599.38;;;24.06;19.06
42691;BME280;28306;55.744;37.578;2023-01-29T09:09:15;99597.47;;;24.07;19.21
42691;BME280;28306;55.744;37.578;2023-01-29T09:11:40;99594.47;;;24.08;19.30
42691;BME280;28306;55.744;37.578;2023-01-29T09:14:06;99592.03;;;24.07;19.19
42691;BME280;28306;55.744;37.578;2023-01-29T09:16:31;99596.66;;;24.06;19.05
42691;BME280;28306;55.744;37.578;2023-01-29T09:18:56;99597.47;;;24.07;19.30
42691;BME280;28306;55.744;37.578;2023-01-29T09:21:22;99599.38;;;24.06;19.07
42691;BME280;28306;55.744;37.578;2023-01-29T09:23:47;99593.94;;;24.06;19.30
42691;BME280;28306;55.744;37.578;2023-01-29T09:26:13;99595.81;;;24.06;18.97
42691;BME280;28306;55.744;37.578;2023-01-29T09:28:38;99592.03;;;24.07;19.24
42691;BME280;28306;55.744;37.578;2023-01-29T09:31:04;99588.25;;;24.08;19.06
42691;BME280;28306;55.744;37.578;2023-01-29T09:33:29;99580.09;;;24.08;19.08
42691;BME280;28306;55.744;37.578;2023-01-29T09:35:55;99572.75;;;24.08;19.24
42691;BME280;28306;55.744;37.578;2023-01-29T09:38:20;99565.66;;;24.07;18.96
42691;BME280;28306;55.744;37.578;2023-01-29T09:43:12;99561.31;;;24.06;18.86
42691;BME280;28306;55.744;37.578;2023-01-29T09:45:41;99561.31;;;24.06;19.07
42691;BME280;28306;55.744;37.578;2023-01-29T09:48:09;99569.47;;;24.06;19.16
42691;BME280;28306;55.744;37.578;2023-01-29T09:50:46;99565.91;;;24.06;18.91
42691;BME280;28306;55.744;37.578;2023-01-29T09:55:47;99554.78;;;24.07;19.03
42691;BME280;28306;55.744;37.578;2023-01-29T10:03:28;99543.66;;;24.09;18.83
42691;BME280;28306;55.744;37.578;2023-01-29T10:14:20;99531.72;;;24.10;18.89
42691;BME280;28306;55.744;37.578;2023-01-29T10:16:50;99518.94;;;24.10;18.93
42691;BME280;28306;55.744;37.578;2023-01-29T10:24:28;99507.25;;;24.10;18.90
42691;BME280;28306;55.744;37.578;2023-01-29T10:26:58;99493.66;;;24.10;18.83
42691;BME280;28306;55.744;37.578;2023-01-29T10:29:25;99481.97;;;24.09;18.95
42691;BME280;28306;55.744;37.578;2023-01-29T10:31:52;99471.91;;;24.10;18.89
42691;BME280;28306;55.744;37.578;2023-01-29T10:34:24;99468.13;;;24.11;18.86
42691;BME280;28306;55.744;37.578;2023-01-29T10:36:52;99472.19;;;24.14;18.91
42691;BME280;28306;55.744;37.578;2023-01-29T10:39:20;99469.22;;;24.15;18.72
42691;BME280;28306;55.744;37.578;2023-01-29T10:44:21;99454.56;;;24.16;19.03
42691;BME280;28306;55.744;37.578;2023-01-29T10:46:57;99446.13;;;24.18;18.88
42691;BME280;28306;55.744;37.578;2023-01-29T10:54:39;99444.78;;;24.20;19.15
42691;BME280;28306;55.744;37.578;2023-01-29T11:02:00;99439.34;;;24.20;19.01
42691;BME280;28306;55.744;37.578;2023-01-29T11:04:27;99436.38;;;24.22;18.76
42691;BME280;28306;55.744;37.578;2023-01-29T11:06:54;99435.25;;;24.23;18.94
42691;BME280;28306;55.744;37.578;2023-01-29T11:09:38;99428.22;;;24.22;18.97
42691;BME280;28306;55.744;37.578;2023-01-29T11:12:15;99426.56;;;24.21;19.02
42691;BME280;28306;55.744;37.578;2023-01-29T11:14:46;99421.94;;;24.21;18.86
42691;BME280;28306;55.744;37.578;2023-01-29T11:17:16;99422.22;;;24.20;18.77
42691;BME280;28306;55.744;37.578;2023-01-29T11:19:43;99424.94;;;24.20;18.95
42691;BME280;28306;55.744;37.578;2023-01-29T11:22:16;99418.41;;;24.21;18.75
42691;BME280;28306;55.744;37.578;2023-01-29T11:24:42;99416.25;;;24.23;19.06
42691;BME280;28306;55.744;37.578;2023-01-29T11:27:23;99415.69;;;24.21;18.96
42691;BME280;28306;55.744;37.578;2023-01-29T11:29:53;99417.59;;;24.20;18.93
42691;BME280;28306;55.744;37.578;2023-01-29T11:35:01;99414.63;;;24.22;18.87
42691;BME280;28306;55.744;37.578;2023-01-29T11:37:32;99405.94;;;24.25;18.95
42691;BME280;28306;55.744;37.578;2023-01-29T11:39:58;99407.81;;;24.24;18.73
42691;BME280;28306;55.744;37.578;2023-01-29T11:42:23;99405.94;;;24.25;18.96
42691;BME280;28306;55.744;37.578;2023-01-29T11:44:51;99400.50;;;24.25;18.95
42691;BME280;28306;55.744;37.578;2023-01-29T11:47:17;99396.69;;;24.26;18.82
42691;BME280;28306;55.744;37.578;2023-01-29T11:50:05;99393.97;;;24.26;18.79
42691;BME280;28306;55.744;37.578;2023-01-29T11:52:34;99392.34;;;24.25;18.91
42691;BME280;28306;55.744;37.578;2023-01-29T11:55:02;99396.94;;;24.24;18.80
42691;BME280;28306;55.744;37.578;2023-01-29T11:57:33;99396.94;;;24.24;19.08
42691;BME280;28306;55.744;37.578;2023-01-29T12:00:02;99389.88;;;24.23;18.93
42691;BME280;28306;55.744;37.578;2023-01-29T12:02:42;99389.06;;;24.23;18.99
42691;BME280;28306;55.744;37.578;2023-01-29T12:05:13;99388.25;;;24.22;18.87
42691;BME280;28306;55.744;37.578;2023-01-29T12:07:40;99387.72;;;24.20;18.97
42691;BME280;28306;55.744;37.578;2023-01-29T12:10:28;99384.72;;;24.22;19.02
42691;BME280;28306;55.744;37.578;2023-01-29T12:12:52;99379.56;;;24.20;18.88
42691;BME280;28306;55.744;37.578;2023-01-29T12:15:27;99376.84;;;24.20;19.21
42691;BME280;28306;55.744;37.578;2023-01-29T12:18:13;99381.44;;;24.20;19.09
42691;BME280;28306;55.744;37.578;2023-01-29T12:21:03;99390.44;;;24.20;19.14
42691;BME280;28306;55.744;37.578;2023-01-29T12:26:14;99381.69;;;24.18;19.11
42691;BME280;28306;55.744;37.578;2023-01-29T12:28:49;99377.38;;;24.17;19.01
42691;BME280;28306;55.744;37.578;2023-01-29T12:31:27;99385.53;;;24.17;18.97
42691;BME280;28306;55.744;37.578;2023-01-29T12:34:01;99383.06;;;24.16;19.01
42691;BME280;28306;55.744;37.578;2023-01-29T12:36:37;99389.56;;;24.15;18.89
42691;BME280;28306;55.744;37.578;2023-01-29T12:39:04;99380.63;;;24.14;19.06
42691;BME280;28306;55.744;37.578;2023-01-29T12:41:40;99375.19;;;24.14;19.22
42691;BME280;28306;55.744;37.578;2023-01-29T12:44:12;99377.31;;;24.12;19.00
42691;BME280;28306;55.744;37.578;2023-01-29T12:46:40;99385.47;;;24.12;19.06
42691;BME280;28306;55.744;37.578;2023-01-29T12:49:12;99380.31;;;24.10;19.03
42691;BME280;28306;55.744;37.578;2023-01-29T12:51:41;99383.03;;;24.10;19.12
42691;BME280;28306;55.744;37.578;2023-01-29T12:54:17;99383.03;;;24.10;19.23
42691;BME280;28306;55.744;37.578;2023-01-29T12:56:47;99381.41;;;24.09;19.37
42691;BME280;28306;55.744;37.578;2023-01-29T13:01:51;99383.28;;;24.09;19.13
42691;BME280;28306;55.744;37.578;2023-01-29T13:04:29;99382.50;;;24.08;19.13
42691;BME280;28306;55.744;37.578;2023-01-29T13:06:59;99378.13;;;24.07;19.28
42691;BME280;28306;55.744;37.578;2023-01-29T13:09:27;99379.78;;;24.08;19.13
42691;BME280;28306;55.744;37.578;2023-01-29T13:12:01;99370.81;;;24.08;19.00
42691;BME280;28306;55.744;37.578;2023-01-29T13:17:13;99369.97;;;24.07;19.31
42691;BME280;28306;55.744;37.578;2023-01-29T13:19:42;99362.91;;;24.06;19.18
42691;BME280;28306;55.744;37.578;2023-01-29T13:22:16;99361.28;;;24.05;19.31
42691;BME280;28306;55.744;37.578;2023-01-29T13:24:43;99361.28;;;24.05;19.24
42691;BME280;28306;55.744;37.578;2023-01-29T13:27:15;99356.91;;;24.04;19.39
42691;BME280;28306;55.744;37.578;2023-01-29T13:29:44;99351.78;;;24.03;19.26
42691;BME280;28306;55.744;37.578;2023-01-29T13:32:09;99358.28;;;24.02;19.13
42691;BME280;28306;55.744;37.578;2023-01-29T13:34:35;99365.63;;;24.01;19.45
42691;BME280;28306;55.744;37.578;2023-01-29T13:37:08;99359.09;;;24.02;19.51
42691;BME280;28306;55.744;37.578;2023-01-29T13:39:36;99359.34;;;24.01;19.26
42691;BME280;28306;55.744;37.578;2023-01-29T13:44:39;99356.66;;;24.01;19.19
42691;BME280;28306;55.744;37.578;2023-01-29T13:47:09;99351.22;;;24.01;19.26
42691;BME280;28306;55.744;37.578;2023-01-29T13:49:43;99344.97;;;24.00;19.27
42691;BME280;28306;55.744;37.578;2023-01-29T13:52:20;99343.06;;;24.01;19.28
42691;BME280;28306;55.744;37.578;2023-01-29T13:54:51;99339.53;;;24.00;19.23
42691;BME280;28306;55.744;37.578;2023-01-29T13:57:33;99343.06;;;24.01;19.11
42691;BME280;28306;55.744;37.578;2023-01-29T13:59:59;99347.69;;;24.00;19.35
42691;BME280;28306;55.744;37.578;2023-01-29T14:02:25;99344.16;;;24.00;19.18
42691;BME280;28306;55.744;37.578;2023-01-29T14:05:06;99339.25;;;24.02;19.13
42691;BME280;28306;55.744;37.578;2023-01-29T14:07:38;99333.81;;;24.02;19.38
42691;BME280;28306;55.744;37.578;2023-01-29T14:10:11;99338.47;;;24.01;19.33
42691;BME280;28306;55.744;37.578;2023-01-29T14:12:39;99331.38;;;24.00;19.33
42691;BME280;28306;55.744;37.578;2023-01-29T14:15:15;99322.41;;;24.00;19.49
42691;BME280;28306;55.744;37.578;2023-01-29T14:18:03;99318.06;;;23.99;19.52
42691;BME280;28306;55.744;37.578;2023-01-29T14:22:55;99314.13;;;23.74;18.59
42691;BME280;28306;55.744;37.578;2023-01-29T14:25:22;99325.25;;;22.49;18.66
42691;BME280;28306;55.744;37.578;2023-01-29T14:27:52;99318.47;;;21.36;19.90
42691;BME280;28306;55.744;37.578;2023-01-29T14:30:18;99318.09;;;20.31;21.02
42691;BME280;28306;55.744;37.578;2023-01-29T14:32:48;99323.88;;;19.53;21.21
42691;BME280;28306;55.744;37.578;2023-01-29T14:35:18;99325.63;;;18.88;21.80
42691;BME280;28306;55.744;37.578;2023-01-29T14:37:44;99326.94;;;18.55;21.97
42691;BME280;28306;55.744;37.578;2023-01-29T14:40:13;99322.28;;;18.21;22.46
42691;BME280;28306;55.744;37.578;2023-01-29T14:42:44;99319.03;;;17.81;22.38
42691;BME280;28306;55.744;37.578;2023-01-29T14:48:03;99324.00;;;17.04;22.96
42691;BME280;28306;55.744;37.578;2023-01-29T14:58:12;99314.19;;;16.59;23.91
42691;BME280;28306;55.744;37.578;2023-01-29T15:00:39;99318.28;;;16.36;23.59
42691;BME280;28306;55.744;37.578;2023-01-29T15:03:17;99315.50;;;16.18;23.45
42691;BME280;28306;55.744;37.578;2023-01-29T15:05:44;99309.72;;;16.21;24.05
42691;BME280;28306;55.744;37.578;2023-01-29T15:08:15;99308.69;;;16.15;24.34
42691;BME280;28306;55.744;37.578;2023-01-29T15:10:51;99303.38;;;16.09;24.19
42691;BME280;28306;55.744;37.578;2023-01-29T15:13:56;99309.56;;;16.09;23.25
42691;BME280;28306;55.744;37.578;2023-01-29T15:16:28;99308.84;;;16.84;22.44
42691;BME280;28306;55.744;37.578;2023-01-29T15:18:56;99305.75;;;17.68;21.91
42691;BME280;28306;55.744;37.578;2023-01-29T15:21:28;99302.09;;;18.42;21.49
42691;BME280;28306;55.744;37.578;2023-01-29T15:24:03;99305.72;;;19.01;21.38
42691;BME280;28306;55.744;37.578;2023-01-29T15:26:29;99303.31;;;19.52;21.06
42691;BME280;28306;55.744;37.578;2023-01-29T15:28:58;99307.34;;;19.90;21.17
42691;BME280;28306;55.744;37.578;2023-01-29T15:31:24;99304.75;;;20.24;20.87
42691;BME280;28306;55.744;37.578;2023-01-29T15:33:52;99313.91;;;20.52;20.88
42691;BME280;28306;55.744;37.578;2023-01-29T15:36:22;99318.94;;;20.77;20.95
42691;BME280;28306;55.744;37.578;2023-01-29T15:39:04;99320.06;;;20.98;20.68
42691;BME280;28306;55.744;37.578;2023-01-29T15:41:30;99317.66;;;21.19;21.03
42691;BME280;28306;55.744;37.578;2023-01-29T15:43:56;99319.28;;;21.37;20.94
42691;BME280;28306;55.744;37.578;2023-01-29T15:46:31;99307.06;;;21.51;20.77
42691;BME280;28306;55.744;37.578;2023-01-29T15:49:00;99296.66;;;21.65;20.94
42691;BME280;28306;55.744;37.578;2023-01-29T15:51:34;99306.03;;;21.80;21.00
42691;BME280;28306;55.744;37.578;2023-01-29T15:54:09;99299.41;;;21.92;20.76
42691;BME280;28306;55.744;37.578;2023-01-29T15:56:42;99297.63;;;22.03;20.97
42691;BME280;28306;55.744;37.578;2023-01-29T15:59:12;99287.97;;;22.12;20.83
42691;BME280;28306;55.744;37.578;2023-01-29T16:01:40;99289.16;;;22.22;20.78
42691;BME280;28306;55.744;37.578;2023-01-29T16:04:08;99293.06;;;22.31;20.63
42691;BME280;28306;55.744;37.578;2023-01-29T16:06:36;99285.56;;;22.38;20.90
42691;BME280;28306;55.744;37.578;2023-01-29T16:09:03;99290.50;;;22.46;20.83
42691;BME280;28306;55.744;37.578;2023-01-29T16:11:29;99281.59;;;22.51;20.92
42691;BME280;28306;55.744;37.578;2023-01-29T16:13:55;99284.09;;;22.58;20.74
42691;BME280;28306;55.744;37.578;2023-01-29T16:16:22;99283.31;;;22.62;20.90
42691;BME280;28306;55.744;37.578;2023-01-29T16:18:48;99277.41;;;22.71;20.97
42691;BME280;28306;55.744;37.578;2023-01-29T16:24:01;99277.25;;;22.82;20.87
42691;BME280;28306;55.744;37.578;2023-01-29T16:26:28;99283.50;;;22.88;20.59
42691;BME280;28306;55.744;37.578;2023-01-29T16:28:55;99284.63;;;22.92;20.89
42691;BME280;28306;55.744;37.578;2023-01-29T16:31:24;99290.91;;;22.98;20.95
42691;BME280;28306;55.744;37.578;2023-01-29T16:33:50;99285.50;;;23.03;20.81
42691;BME280;28306;55.744;37.578;2023-01-29T16:36:16;99277.66;;;23.07;20.66
42691;BME280;28306;55.744;37.578;2023-01-29T16:38:44;99272.53;;;23.10;20.59
42691;BME280;28306;55.744;37.578;2023-01-29T16:48:43;99270.72;;;23.21;20.51
42691;BME280;28306;55.744;37.578;2023-01-29T16:51:12;99273.72;;;23.25;20.58
42691;BME280;28306;55.744;37.578;2023-01-29T16:53:38;99277.00;;;23.27;20.63
42691;BME280;28306;55.744;37.578;2023-01-29T16:56:04;99272.94;;;23.29;20.73
42691;BME280;28306;55.744;37.578;2023-01-29T16:58:31;99269.13;;;23.30;20.53
42691;BME280;28306;55.744;37.578;2023-01-29T17:00:58;99260.72;;;23.32;20.69
42691;BME280;28306;55.744;37.578;2023-01-29T17:03:25;99252.88;;;23.35;20.40
42691;BME280;28306;55.744;37.578;2023-01-29T17:05:52;99253.44;;;23.37;20.61